Impacts METAR Board
IDs:

KGTU - Georgetown Muni, TX, US

Updated at: 1300 UTC 13 Dec 2019
Potential Impact None Slight Moderate High
Time 13/01Z 13/02Z 13/03Z 13/04Z 13/05Z 13/06Z 13/07Z 13/08Z 13/09Z 13/10Z 13/11Z 13/12Z 13/13Z
Temp52 48 45 42 44 45 44 42 39 39 40 38 37
Dewpt43 41 41 39 40 42 40 39 37 36 36 35 35
Altim30.11 30.10 30.10 30.09 30.07 30.06 30.03 30.03 30.01 29.98 29.97 29.95 29.96
VIS10 10 10 10 10 10 10 10 10 10 10 10 10
CIG-- -- -- -- -- -- -- -- -- -- -- -- --
CoverCLRCLRCLRCLRFEWCLRCLRCLRCLRCLRCLRCLRCLR
FltCatVFRVFRVFRVFRVFRVFRVFRVFRVFRVFRVFRVFRVFR
WX--------------------------
WDir1700021020022021000190000
WSpd3 0 0 3 5 7 5 0 0 3 0 0 0
WGst-- -- -- -- -- -- -- -- -- -- -- -- --
Raw hourly METARs
KGTU 130056Z 17003KT 10SM CLR 11/06 A3011 RMK AO2 SLP203 T01110061
KGTU 130156Z 00000KT 10SM CLR 09/05 A3010 RMK AO2 SLP197 T00890050
KGTU 130256Z 00000KT 10SM CLR 07/05 A3010 RMK AO2 SLP196 T00720050 55006
KGTU 130356Z 21003KT 10SM CLR 06/04 A3009 RMK AO2 SLP193 T00560039
KGTU 130456Z 20005KT 10SM FEW026 07/04 A3007 RMK AO2 SLP187 T00670044
KGTU 130556Z 22007KT 10SM CLR 07/06 A3006 RMK AO2 SLP181 T00720056 10133 20056 401561017 58012
KGTU 130656Z 21005KT 10SM CLR 07/04 A3003 RMK AO2 SLP174 T00670044
KGTU 130756Z 00000KT 10SM CLR 06/04 A3003 RMK AO2 SLP171 T00560039
KGTU 130856Z 00000KT 10SM CLR 04/03 A3001 RMK AO2 SLP166 T00390028 56017
KGTU 130956Z 19003KT 10SM CLR 04/02 A2998 RMK AO2 SLP156 T00390022
KGTU 131056Z 00000KT 10SM CLR 04/02 A2997 RMK AO2 SLP152 T00440022
KGTU 131156Z 00000KT 10SM CLR 03/02 A2995 RMK AO2 SLP146 T00330017 10072 20033 56019
KGTU 131256Z 00000KT 10SM CLR 03/02 A2996 RMK AO2 SLP150 T00280017



Page loaded:  13:49 UTC  |   05:49 AM Pacific  |   06:49 AM Mountain  |   07:49 AM Central  |   08:49 AM Eastern

 

ADVISORIES

FORECASTS

FORECASTS

OBSERVATIONS

USER TOOLS

ABOUT US